Time;durP1;ratioP1;P1;durP2;ratioP2;P2;SDS_P1;SDS_P2;PMS_P1;PMS_P2;Temp;Humidity;BMP_temperature;BMP_pressure;BME280_temperature;BME280_humidity;BME280_pressure;Samples;Min_cycle;Max_cycle;Signal;HPM_P1;HPM_P2
2023/07/19 00:01:42;;;;;;;1.88;1.10;;;;;;;;;;6140286;23;20190;-86
2023/07/19 00:04:10;;;;;;;1.33;1.23;;;;;;;;;;6140061;23;20200;-85
2023/07/19 00:06:37;;;;;;;1.48;1.30;;;;;;;;;;6139077;23;20596;-83
2023/07/19 00:09:05;;;;;;;2.22;1.10;;;;;;;;;;6138899;23;20577;-84
2023/07/19 00:11:31;;;;;;;1.30;1.20;;;;;;;;;;6138530;23;20186;-87
2023/07/19 00:13:59;;;;;;;1.35;1.10;;;;;;;;;;6138726;23;20204;-86
2023/07/19 00:16:27;;;;;;;1.80;1.33;;;;;;;;;;6139757;23;20172;-85
2023/07/19 00:18:56;;;;;;;1.98;1.23;;;;;;;;;;6139119;23;20740;-88
2023/07/19 00:21:24;;;;;;;1.60;1.50;;;;;;;;;;6139891;23;20200;-85
2023/07/19 00:23:52;;;;;;;1.42;1.33;;;;;;;;;;6139181;23;20259;-84
2023/07/19 00:26:19;;;;;;;2.22;1.88;;;;;;;;;;6139004;23;20239;-83
2023/07/19 00:28:47;;;;;;;1.60;1.50;;;;;;;;;;6139198;23;20224;-83
2023/07/19 00:31:15;;;;;;;3.08;1.67;;;;;;;;;;6139173;23;20198;-83
2023/07/19 00:33:42;;;;;;;1.70;1.45;;;;;;;;;;6139167;23;20509;-85
2023/07/19 00:36:12;;;;;;;1.50;1.40;;;;;;;;;;6139293;23;20509;-83
2023/07/19 00:38:40;;;;;;;1.90;1.30;;;;;;;;;;6140160;23;20627;-83
2023/07/19 00:41:07;;;;;;;2.05;1.48;;;;;;;;;;6140067;23;20187;-83
2023/07/19 00:43:35;;;;;;;1.40;1.30;;;;;;;;;;6141006;23;20187;-85
2023/07/19 00:46:02;;;;;;;1.38;1.27;;;;;;;;;;6139551;23;20187;-85
2023/07/19 00:48:30;;;;;;;1.50;1.17;;;;;;;;;;6139084;23;20194;-85
2023/07/19 00:50:59;;;;;;;1.75;1.50;;;;;;;;;;6138791;23;20619;-83
2023/07/19 00:53:28;;;;;;;2.05;1.20;;;;;;;;;;6139913;23;20259;-84
2023/07/19 00:55:55;;;;;;;0.80;0.80;;;;;;;;;;6139895;23;20200;-83
2023/07/19 00:58:24;;;;;;;1.10;1.00;;;;;;;;;;6140020;23;20180;-85
2023/07/19 01:00:52;;;;;;;1.30;1.30;;;;;;;;;;6139261;23;20235;-83
2023/07/19 01:03:20;;;;;;;1.10;1.02;;;;;;;;;;6139824;23;20180;-83
2023/07/19 01:05:48;;;;;;;1.20;1.10;;;;;;;;;;6139967;23;20227;-84
2023/07/19 01:08:17;;;;;;;1.10;1.10;;;;;;;;;;6139135;23;20207;-84
2023/07/19 01:10:47;;;;;;;1.33;1.23;;;;;;;;;;6138603;23;20225;-87
2023/07/19 01:13:15;;;;;;;1.23;1.23;;;;;;;;;;6139214;23;20250;-85
2023/07/19 01:15:42;;;;;;;1.92;1.00;;;;;;;;;;6138939;23;20570;-86
2023/07/19 01:18:10;;;;;;;1.20;1.10;;;;;;;;;;6137296;23;20183;-86
2023/07/19 01:20:38;;;;;;;1.27;1.13;;;;;;;;;;6138518;23;20691;-86
2023/07/19 01:23:06;;;;;;;1.20;1.10;;;;;;;;;;6138497;23;20195;-84
2023/07/19 01:25:34;;;;;;;1.17;1.15;;;;;;;;;;6138650;23;20235;-84
2023/07/19 01:28:02;;;;;;;2.47;1.38;;;;;;;;;;6139239;23;20179;-84
2023/07/19 01:30:29;;;;;;;1.20;1.10;;;;;;;;;;6137946;23;20206;-83
2023/07/19 01:32:56;;;;;;;1.23;1.00;;;;;;;;;;6139331;23;20214;-84
2023/07/19 01:35:24;;;;;;;1.05;1.05;;;;;;;;;;6138802;23;20530;-83
2023/07/19 01:37:52;;;;;;;1.30;1.20;;;;;;;;;;6140101;23;20204;-83
2023/07/19 01:40:21;;;;;;;1.40;1.30;;;;;;;;;;6139064;23;20690;-84
2023/07/19 01:42:48;;;;;;;1.38;0.93;;;;;;;;;;6139662;23;20502;-83
2023/07/19 01:45:15;;;;;;;1.30;1.20;;;;;;;;;;6138953;23;20199;-83
2023/07/19 01:47:43;;;;;;;1.08;1.08;;;;;;;;;;6139719;23;20187;-85
2023/07/19 01:50:11;;;;;;;1.38;1.27;;;;;;;;;;6139232;23;20670;-83
2023/07/19 01:52:39;;;;;;;0.90;0.90;;;;;;;;;;6139629;23;20548;-83
2023/07/19 01:55:08;;;;;;;1.08;1.08;;;;;;;;;;6138822;23;20200;-83
2023/07/19 01:57:36;;;;;;;1.02;1.02;;;;;;;;;;6138923;23;20203;-85
2023/07/19 02:00:05;;;;;;;0.82;0.82;;;;;;;;;;6138910;23;20186;-85
2023/07/19 02:02:32;;;;;;;1.05;1.05;;;;;;;;;;6138873;23;20190;-84
2023/07/19 02:05:00;;;;;;;1.00;1.00;;;;;;;;;;6137386;23;20211;-87
2023/07/19 02:07:27;;;;;;;1.40;1.30;;;;;;;;;;6137917;23;20203;-86
2023/07/19 02:09:55;;;;;;;1.08;1.08;;;;;;;;;;6137637;23;20196;-84
2023/07/19 02:12:22;;;;;;;1.25;1.15;;;;;;;;;;6137130;23;20218;-84
2023/07/19 02:14:52;;;;;;;1.50;1.40;;;;;;;;;;6138500;23;20200;-83
2023/07/19 02:17:19;;;;;;;1.25;1.15;;;;;;;;;;6138059;23;20518;-85
2023/07/19 02:19:47;;;;;;;1.25;1.15;;;;;;;;;;6138017;23;20199;-85
2023/07/19 02:22:15;;;;;;;0.80;0.80;;;;;;;;;;6138137;23;20211;-86
2023/07/19 02:24:43;;;;;;;2.13;1.30;;;;;;;;;;6137340;23;20199;-84
2023/07/19 02:27:11;;;;;;;1.63;1.45;;;;;;;;;;6137231;23;20211;-86
2023/07/19 02:29:38;;;;;;;1.08;1.00;;;;;;;;;;6137382;23;20179;-85
2023/07/19 02:32:08;;;;;;;1.30;1.20;;;;;;;;;;6137778;23;20186;-83
2023/07/19 02:34:35;;;;;;;1.20;1.20;;;;;;;;;;6137021;23;20267;-84
2023/07/19 02:37:03;;;;;;;0.98;0.98;;;;;;;;;;6137038;23;20191;-84
2023/07/19 02:39:31;;;;;;;1.13;1.02;;;;;;;;;;6137111;23;20188;-83
2023/07/19 02:41:58;;;;;;;1.58;1.48;;;;;;;;;;6136970;23;20183;-84
2023/07/19 02:44:26;;;;;;;1.50;1.40;;;;;;;;;;6137685;23;20188;-84
2023/07/19 02:46:53;;;;;;;1.15;1.10;;;;;;;;;;6137168;23;20559;-83
2023/07/19 02:49:23;;;;;;;1.30;1.20;;;;;;;;;;6137489;23;20180;-83
2023/07/19 02:51:51;;;;;;;1.00;1.00;;;;;;;;;;6138639;23;20180;-83
2023/07/19 02:54:18;;;;;;;1.00;1.00;;;;;;;;;;6139049;23;20199;-83
2023/07/19 02:56:46;;;;;;;1.27;1.23;;;;;;;;;;6138184;23;20183;-83
2023/07/19 02:59:13;;;;;;;1.55;1.40;;;;;;;;;;6138286;23;20176;-83
2023/07/19 03:01:42;;;;;;;1.30;1.20;;;;;;;;;;6138621;23;20196;-86
2023/07/19 03:04:12;;;;;;;1.55;1.45;;;;;;;;;;6138507;23;20247;-86
2023/07/19 03:06:41;;;;;;;1.45;1.35;;;;;;;;;;6138132;23;20554;-85
2023/07/19 03:09:10;;;;;;;1.25;1.17;;;;;;;;;;6138153;23;20176;-85
2023/07/19 03:11:38;;;;;;;0.85;0.85;;;;;;;;;;6139273;23;20203;-84
2023/07/19 03:14:06;;;;;;;1.25;1.15;;;;;;;;;;6139561;23;20200;-84
2023/07/19 03:16:33;;;;;;;0.93;0.93;;;;;;;;;;6138955;23;20191;-85
2023/07/19 03:19:00;;;;;;;1.65;1.10;;;;;;;;;;6138874;23;20180;-84
2023/07/19 03:21:28;;;;;;;1.23;1.13;;;;;;;;;;6140378;23;20236;-84
2023/07/19 03:23:57;;;;;;;1.30;1.20;;;;;;;;;;6139559;23;20223;-85
2023/07/19 03:26:24;;;;;;;1.23;1.15;;;;;;;;;;6138923;23;20183;-87
2023/07/19 03:28:52;;;;;;;1.25;1.15;;;;;;;;;;6138293;23;20187;-84
2023/07/19 03:31:20;;;;;;;1.38;1.27;;;;;;;;;;6139470;23;20199;-84
2023/07/19 03:33:47;;;;;;;1.40;1.30;;;;;;;;;;6138756;23;20180;-84
2023/07/19 03:36:15;;;;;;;1.70;1.50;;;;;;;;;;6138582;23;20657;-86
2023/07/19 03:38:42;;;;;;;1.98;1.52;;;;;;;;;;6139450;23;20191;-83
2023/07/19 03:41:11;;;;;;;2.10;1.00;;;;;;;;;;6138917;23;20190;-85
2023/07/19 03:43:39;;;;;;;0.90;0.90;;;;;;;;;;6139405;23;20199;-84
2023/07/19 03:46:07;;;;;;;1.23;1.10;;;;;;;;;;6139253;23;20204;-83
2023/07/19 03:48:35;;;;;;;1.35;1.25;;;;;;;;;;6145088;23;20254;-84
2023/07/19 03:51:03;;;;;;;1.85;1.75;;;;;;;;;;6139743;23;20600;-84
2023/07/19 03:53:31;;;;;;;1.95;1.27;;;;;;;;;;6137264;23;20203;-84
2023/07/19 03:56:00;;;;;;;1.27;1.10;;;;;;;;;;6138112;23;20175;-83
2023/07/19 03:58:31;;;;;;;1.42;1.33;;;;;;;;;;6138851;23;20222;-85
2023/07/19 04:00:59;;;;;;;1.33;1.23;;;;;;;;;;6138536;23;20531;-85
2023/07/19 04:03:28;;;;;;;1.30;1.20;;;;;;;;;;6138916;23;20179;-85
2023/07/19 04:05:57;;;;;;;1.02;1.02;;;;;;;;;;6137669;23;20541;-85
2023/07/19 04:08:25;;;;;;;1.30;1.20;;;;;;;;;;6138185;23;20198;-86
2023/07/19 04:10:52;;;;;;;1.02;1.02;;;;;;;;;;6138038;23;20255;-83
2023/07/19 04:13:20;;;;;;;0.88;0.88;;;;;;;;;;6137963;23;20180;-84
2023/07/19 04:15:49;;;;;;;1.20;1.10;;;;;;;;;;6138243;23;20230;-85
2023/07/19 04:18:16;;;;;;;1.38;1.27;;;;;;;;;;6138264;23;20187;-83
2023/07/19 04:20:44;;;;;;;1.23;1.17;;;;;;;;;;6139197;23;20186;-83
2023/07/19 04:23:11;;;;;;;1.15;0.88;;;;;;;;;;6139652;23;20459;-83
2023/07/19 04:25:39;;;;;;;1.30;1.20;;;;;;;;;;6136502;23;20231;-85
2023/07/19 04:28:06;;;;;;;1.75;1.50;;;;;;;;;;6136811;23;20180;-86
2023/07/19 04:30:34;;;;;;;1.00;1.00;;;;;;;;;;6130944;23;20191;-87
2023/07/19 04:33:04;;;;;;;1.35;1.25;;;;;;;;;;6130544;23;20199;-85
2023/07/19 04:35:31;;;;;;;1.30;1.20;;;;;;;;;;6131593;23;20240;-85
2023/07/19 04:37:59;;;;;;;1.40;1.30;;;;;;;;;;6134158;23;20236;-84
2023/07/19 04:40:26;;;;;;;1.40;1.30;;;;;;;;;;6133484;23;20198;-85
2023/07/19 04:42:54;;;;;;;1.42;1.33;;;;;;;;;;6134026;23;20175;-87
2023/07/19 04:45:21;;;;;;;1.77;1.67;;;;;;;;;;6134022;23;20204;-85
2023/07/19 04:47:49;;;;;;;1.65;1.55;;;;;;;;;;6132979;23;20218;-84
2023/07/19 04:50:18;;;;;;;1.50;1.40;;;;;;;;;;6134676;23;20183;-85
2023/07/19 04:52:46;;;;;;;1.98;1.80;;;;;;;;;;6133171;23;20741;-83
2023/07/19 04:55:13;;;;;;;1.30;1.20;;;;;;;;;;6133266;23;20204;-85
2023/07/19 04:57:41;;;;;;;1.38;1.27;;;;;;;;;;6133675;23;20216;-83
2023/07/19 05:00:13;;;;;;;1.83;1.33;;;;;;;;;;6133120;23;20187;-85
2023/07/19 05:02:41;;;;;;;1.92;1.83;;;;;;;;;;6134687;23;20164;-86
2023/07/19 05:05:12;;;;;;;1.52;1.42;;;;;;;;;;6133278;23;20282;-86
2023/07/19 05:07:40;;;;;;;2.08;1.95;;;;;;;;;;6134539;23;20164;-85
2023/07/19 05:10:09;;;;;;;2.78;2.45;;;;;;;;;;6133638;23;20187;-85
2023/07/19 05:12:37;;;;;;;3.10;1.95;;;;;;;;;;6132455;23;20274;-86
2023/07/19 05:15:06;;;;;;;1.90;1.80;;;;;;;;;;6131991;23;20204;-85
2023/07/19 05:17:33;;;;;;;1.83;1.60;;;;;;;;;;6133589;23;20493;-84
2023/07/19 05:20:01;;;;;;;1.55;1.45;;;;;;;;;;6133254;23;20190;-87
2023/07/19 05:22:28;;;;;;;1.73;1.63;;;;;;;;;;6133131;23;20187;-85
2023/07/19 05:24:57;;;;;;;2.70;2.50;;;;;;;;;;6132962;23;20210;-84
2023/07/19 05:27:25;;;;;;;2.00;1.88;;;;;;;;;;6133615;23;20200;-85
2023/07/19 05:29:52;;;;;;;3.63;2.20;;;;;;;;;;6134149;23;20167;-86
2023/07/19 05:32:20;;;;;;;1.77;1.58;;;;;;;;;;6132426;23;20203;-83
2023/07/19 05:34:48;;;;;;;1.92;1.70;;;;;;;;;;6133369;23;20659;-86
2023/07/19 05:37:15;;;;;;;2.17;1.77;;;;;;;;;;6132889;23;20216;-85
2023/07/19 05:39:43;;;;;;;1.50;1.40;;;;;;;;;;6130973;23;20219;-88
2023/07/19 05:42:12;;;;;;;1.60;1.50;;;;;;;;;;6167357;23;20222;-93
2023/07/19 05:44:39;;;;;;;2.38;1.92;;;;;;;;;;6172654;23;20186;-93
2023/07/19 05:47:07;;;;;;;2.92;2.15;;;;;;;;;;6171414;23;20182;-94
2023/07/19 05:49:35;;;;;;;2.80;2.45;;;;;;;;;;6167529;23;20202;-94
2023/07/19 05:52:03;;;;;;;2.78;2.47;;;;;;;;;;6143686;23;20183;-93
2023/07/19 05:54:33;;;;;;;2.25;2.05;;;;;;;;;;6151825;23;20168;-93
2023/07/19 05:57:00;;;;;;;1.83;1.73;;;;;;;;;;6152121;23;20183;-93
2023/07/19 05:59:30;;;;;;;2.33;2.00;;;;;;;;;;6150808;23;20166;-93
2023/07/19 06:01:58;;;;;;;3.00;2.58;;;;;;;;;;6152854;23;20168;-93
2023/07/19 06:04:26;;;;;;;1.98;1.77;;;;;;;;;;6153526;23;20152;-93
2023/07/19 06:06:53;;;;;;;1.77;1.67;;;;;;;;;;6153521;23;20195;-93
2023/07/19 06:09:21;;;;;;;3.97;2.17;;;;;;;;;;6153137;23;20168;-94
2023/07/19 06:11:49;;;;;;;2.10;1.92;;;;;;;;;;6153889;23;20160;-94
2023/07/19 06:14:16;;;;;;;2.53;2.22;;;;;;;;;;6153667;23;20167;-94
2023/07/19 06:16:45;;;;;;;2.60;2.08;;;;;;;;;;6153157;23;20180;-95
2023/07/19 06:19:16;;;;;;;2.50;2.30;;;;;;;;;;6153317;23;20158;-95
2023/07/19 06:21:43;;;;;;;2.95;2.60;;;;;;;;;;6153477;23;20168;-95
2023/07/19 06:24:11;;;;;;;2.60;2.13;;;;;;;;;;6153756;23;20156;-94
2023/07/19 06:26:38;;;;;;;2.13;1.92;;;;;;;;;;6153577;23;20152;-95
2023/07/19 06:29:06;;;;;;;1.83;1.73;;;;;;;;;;6153566;23;20152;-95
2023/07/19 06:31:34;;;;;;;2.22;1.98;;;;;;;;;;6153314;23;20199;-93
2023/07/19 06:34:04;;;;;;;3.08;2.75;;;;;;;;;;6153511;23;20183;-94
2023/07/19 06:36:32;;;;;;;1.63;1.52;;;;;;;;;;6153752;23;20156;-94
2023/07/19 06:38:59;;;;;;;2.47;2.28;;;;;;;;;;6152966;23;20164;-94
2023/07/19 06:41:27;;;;;;;2.42;2.22;;;;;;;;;;6151896;23;20214;-95
2023/07/19 06:43:54;;;;;;;1.70;1.60;;;;;;;;;;6151697;23;20164;-95
2023/07/19 06:46:23;;;;;;;2.45;2.25;;;;;;;;;;6152605;23;20179;-94
2023/07/19 06:48:50;;;;;;;2.15;1.95;;;;;;;;;;6152151;23;20163;-94
2023/07/19 06:51:19;;;;;;;2.50;2.30;;;;;;;;;;6152123;23;20187;-94
2023/07/19 06:53:47;;;;;;;3.15;2.60;;;;;;;;;;6153444;23;20215;-95
2023/07/19 06:56:15;;;;;;;3.13;2.70;;;;;;;;;;6153098;23;20164;-94
2023/07/19 06:58:42;;;;;;;2.25;2.05;;;;;;;;;;6152708;23;20180;-95
2023/07/19 07:01:10;;;;;;;5.18;2.28;;;;;;;;;;6152526;23;20195;-94
2023/07/19 07:03:37;;;;;;;2.65;2.45;;;;;;;;;;6153135;23;20159;-95
2023/07/19 07:06:05;;;;;;;2.03;1.92;;;;;;;;;;6150363;23;20176;-95
2023/07/19 07:08:34;;;;;;;2.55;1.90;;;;;;;;;;6149986;23;20171;-94
2023/07/19 07:11:02;;;;;;;2.42;2.22;;;;;;;;;;6149653;23;20192;-93
2023/07/19 07:13:30;;;;;;;2.20;2.00;;;;;;;;;;6150045;23;20282;-94
2023/07/19 07:15:59;;;;;;;3.03;2.63;;;;;;;;;;6146929;23;20171;-95
2023/07/19 07:18:27;;;;;;;2.67;2.38;;;;;;;;;;6145623;23;20188;-94
2023/07/19 07:20:54;;;;;;;2.92;2.55;;;;;;;;;;6146546;23;20195;-95
2023/07/19 07:23:22;;;;;;;4.78;1.85;;;;;;;;;;6143482;23;20159;-94
2023/07/19 07:25:54;;;;;;;2.00;1.80;;;;;;;;;;6140780;23;20524;-93
2023/07/19 07:28:22;;;;;;;2.55;2.35;;;;;;;;;;6130440;23;20172;-93
2023/07/19 07:30:49;;;;;;;2.25;2.05;;;;;;;;;;6140810;23;20198;-94
2023/07/19 07:33:19;;;;;;;2.60;2.40;;;;;;;;;;6138382;23;20195;-94
2023/07/19 07:35:47;;;;;;;2.78;2.03;;;;;;;;;;6141224;23;20200;-94
2023/07/19 07:38:15;;;;;;;2.70;2.00;;;;;;;;;;6142305;23;20183;-94
2023/07/19 07:40:42;;;;;;;4.25;2.22;;;;;;;;;;6152527;23;20191;-94
2023/07/19 07:43:11;;;;;;;2.15;2.00;;;;;;;;;;6140989;23;20164;-94
2023/07/19 07:45:39;;;;;;;2.40;2.20;;;;;;;;;;6139709;23;20187;-94
2023/07/19 07:48:07;;;;;;;2.55;1.98;;;;;;;;;;6144512;23;20232;-94
2023/07/19 07:50:34;;;;;;;2.03;1.92;;;;;;;;;;6152179;23;20184;-93
2023/07/19 07:53:02;;;;;;;2.08;1.73;;;;;;;;;;6152950;23;20167;-94
2023/07/19 07:55:30;;;;;;;2.70;2.50;;;;;;;;;;6151572;23;20168;-96
2023/07/19 07:57:58;;;;;;;1.73;1.63;;;;;;;;;;6143979;23;20172;-94
2023/07/19 08:00:27;;;;;;;2.15;1.92;;;;;;;;;;6141522;23;20239;-93
2023/07/19 08:02:54;;;;;;;2.30;2.13;;;;;;;;;;6145995;23;20176;-94
2023/07/19 08:05:22;;;;;;;2.22;2.03;;;;;;;;;;6148031;23;20179;-94
2023/07/19 08:07:49;;;;;;;3.20;2.55;;;;;;;;;;6147803;23;20176;-94
2023/07/19 08:10:17;;;;;;;1.77;1.67;;;;;;;;;;6149261;23;20184;-94
2023/07/19 08:12:45;;;;;;;2.47;2.10;;;;;;;;;;6153646;23;20179;-94
2023/07/19 08:15:13;;;;;;;2.88;2.05;;;;;;;;;;6152031;23;20210;-94
2023/07/19 08:17:42;;;;;;;3.55;2.10;;;;;;;;;;6149162;23;20178;-94
2023/07/19 08:20:11;;;;;;;1.70;1.60;;;;;;;;;;6145916;23;20191;-95
2023/07/19 08:22:39;;;;;;;2.40;2.20;;;;;;;;;;6151534;23;20152;-95
2023/07/19 08:25:08;;;;;;;3.30;2.67;;;;;;;;;;6152048;23;20191;-95
2023/07/19 08:27:36;;;;;;;2.85;2.20;;;;;;;;;;6152999;23;20152;-95
2023/07/19 08:30:07;;;;;;;2.45;2.17;;;;;;;;;;6151268;23;20243;-94
2023/07/19 08:32:34;;;;;;;2.10;1.90;;;;;;;;;;6150157;23;20172;-94
2023/07/19 08:35:03;;;;;;;2.13;1.70;;;;;;;;;;6151793;23;20195;-94
2023/07/19 08:37:31;;;;;;;5.50;3.55;;;;;;;;;;6152438;23;20175;-93
2023/07/19 08:39:58;;;;;;;5.55;3.78;;;;;;;;;;6149178;23;20196;-94
2023/07/19 08:42:26;;;;;;;2.33;2.13;;;;;;;;;;6150867;23;20184;-94
2023/07/19 08:44:54;;;;;;;2.85;2.08;;;;;;;;;;6150355;23;20190;-94
2023/07/19 08:47:22;;;;;;;1.98;1.85;;;;;;;;;;6152400;23;20187;-95
2023/07/19 08:49:50;;;;;;;8.05;2.08;;;;;;;;;;6150947;23;20200;-94
2023/07/19 08:52:19;;;;;;;2.05;1.67;;;;;;;;;;6153542;23;20168;-94
2023/07/19 08:54:47;;;;;;;2.15;1.95;;;;;;;;;;6150672;23;20202;-94
2023/07/19 08:57:14;;;;;;;3.25;1.85;;;;;;;;;;6149608;23;20172;-94
2023/07/19 08:59:42;;;;;;;5.18;3.15;;;;;;;;;;6149617;23;20200;-94
2023/07/19 09:02:10;;;;;;;2.58;2.03;;;;;;;;;;6147032;23;20172;-95
2023/07/19 09:04:37;;;;;;;2.50;2.05;;;;;;;;;;6146212;23;20183;-94
2023/07/19 09:07:06;;;;;;;2.05;1.90;;;;;;;;;;6147985;23;20175;-94
2023/07/19 09:09:35;;;;;;;2.00;1.90;;;;;;;;;;6145802;23;20171;-94
2023/07/19 09:12:05;;;;;;;1.92;1.83;;;;;;;;;;6135122;23;20188;-93
2023/07/19 09:14:36;;;;;;;1.83;1.73;;;;;;;;;;6138714;23;20195;-94
2023/07/19 09:17:03;;;;;;;2.00;1.90;;;;;;;;;;6132689;23;20226;-93
2023/07/19 09:19:31;;;;;;;2.53;1.90;;;;;;;;;;6135442;23;20195;-93
2023/07/19 09:22:05;;;;;;;1.75;1.65;;;;;;;;;;6143719;23;20178;-93
2023/07/19 09:24:34;;;;;;;1.67;1.58;;;;;;;;;;6143765;23;20186;-93
2023/07/19 09:27:02;;;;;;;2.50;2.17;;;;;;;;;;6149102;23;20175;-95
2023/07/19 09:29:31;;;;;;;3.72;2.55;;;;;;;;;;6148240;23;20171;-93
2023/07/19 09:32:00;;;;;;;2.38;2.17;;;;;;;;;;6143975;23;20180;-93
2023/07/19 09:34:30;;;;;;;3.28;2.25;;;;;;;;;;6146217;23;20195;-94
2023/07/19 09:36:58;;;;;;;2.55;2.05;;;;;;;;;;6143470;23;20231;-94
2023/07/19 09:39:27;;;;;;;2.53;1.90;;;;;;;;;;6146350;23;20176;-93
2023/07/19 09:41:56;;;;;;;2.92;2.53;;;;;;;;;;6137439;23;20196;-93
2023/07/19 09:44:23;;;;;;;2.15;1.92;;;;;;;;;;6135870;23;20231;-93
2023/07/19 09:46:51;;;;;;;2.58;2.38;;;;;;;;;;6134480;23;20191;-93
2023/07/19 09:49:19;;;;;;;3.00;2.22;;;;;;;;;;6132948;23;20643;-92
2023/07/19 09:51:49;;;;;;;2.28;1.88;;;;;;;;;;6132088;23;20187;-93
2023/07/19 09:54:17;;;;;;;3.50;1.90;;;;;;;;;;6131755;23;20199;-93
2023/07/19 09:56:46;;;;;;;6.30;2.53;;;;;;;;;;6137747;23;20176;-93
2023/07/19 09:59:18;;;;;;;6.53;2.58;;;;;;;;;;6133699;23;20182;-93
2023/07/19 10:01:46;;;;;;;2.50;2.25;;;;;;;;;;6135948;23;20157;-94
2023/07/19 10:04:24;;;;;;;21.08;3.97;;;;;;;;;;6134772;23;20671;-94
2023/07/19 10:07:03;;;;;;;3.60;2.22;;;;;;;;;;6139004;23;20172;-92
2023/07/19 10:09:37;;;;;;;2.63;1.90;;;;;;;;;;6138128;23;20227;-93
2023/07/19 10:12:09;;;;;;;56.08;5.07;;;;;;;;;;6140449;23;20544;-92
2023/07/19 10:14:38;;;;;;;5.43;2.45;;;;;;;;;;6138886;23;20706;-93
2023/07/19 10:17:07;;;;;;;2.47;2.10;;;;;;;;;;6135783;23;20172;-93
2023/07/19 10:19:36;;;;;;;4.38;2.35;;;;;;;;;;6152318;23;20176;-92
2023/07/19 10:22:06;;;;;;;3.05;2.38;;;;;;;;;;6141451;23;20177;-93
2023/07/19 10:24:35;;;;;;;5.60;2.03;;;;;;;;;;6140016;23;20175;-93
2023/07/19 10:27:04;;;;;;;3.08;2.72;;;;;;;;;;6139039;23;20183;-93
2023/07/19 10:29:45;;;;;;;4.85;2.30;;;;;;;;;;6146509;23;20175;-91
2023/07/19 10:32:13;;;;;;;3.65;2.92;;;;;;;;;;6139633;23;20168;-93
2023/07/19 10:34:45;;;;;;;2.65;2.00;;;;;;;;;;6142478;23;20210;-93
2023/07/19 10:37:13;;;;;;;2.58;2.38;;;;;;;;;;6144199;23;20168;-93
2023/07/19 10:39:40;;;;;;;2.88;2.53;;;;;;;;;;6137195;23;20223;-92
2023/07/19 10:42:08;;;;;;;2.67;2.15;;;;;;;;;;6139626;23;20187;-93
2023/07/19 10:44:36;;;;;;;2.28;2.10;;;;;;;;;;6139016;23;20175;-95
2023/07/19 10:47:06;;;;;;;3.50;2.90;;;;;;;;;;6136547;23;20192;-92
2023/07/19 10:49:33;;;;;;;3.38;3.05;;;;;;;;;;6137998;23;20207;-92
2023/07/19 10:52:01;;;;;;;2.92;2.10;;;;;;;;;;6138593;23;20172;-92
2023/07/19 10:54:29;;;;;;;3.72;2.20;;;;;;;;;;6143274;23;20174;-94
2023/07/19 10:56:57;;;;;;;2.40;2.13;;;;;;;;;;6152842;23;20216;-93
2023/07/19 10:59:25;;;;;;;2.53;2.08;;;;;;;;;;6152718;23;20174;-93
2023/07/19 11:01:53;;;;;;;3.80;2.42;;;;;;;;;;6152820;23;20156;-94
2023/07/19 11:04:22;;;;;;;5.72;2.38;;;;;;;;;;6150448;23;20168;-94
2023/07/19 11:06:58;;;;;;;2.58;2.33;;;;;;;;;;6150264;23;20164;-93
2023/07/19 11:09:25;;;;;;;2.70;2.42;;;;;;;;;;6150680;23;20547;-94
2023/07/19 11:11:53;;;;;;;4.25;2.58;;;;;;;;;;6148444;23;20160;-93
2023/07/19 11:14:32;;;;;;;3.30;2.53;;;;;;;;;;6148351;23;20172;-93
2023/07/19 11:17:01;;;;;;;2.70;2.10;;;;;;;;;;6147614;23;20200;-94
2023/07/19 11:19:39;;;;;;;3.80;3.05;;;;;;;;;;6150896;23;20175;-94
2023/07/19 11:22:08;;;;;;;2.33;2.08;;;;;;;;;;6145600;23;20228;-93
2023/07/19 11:24:41;;;;;;;3.85;3.40;;;;;;;;;;6146267;23;20350;-93
2023/07/19 11:27:10;;;;;;;2.55;2.05;;;;;;;;;;6145591;23;20171;-92
2023/07/19 11:29:37;;;;;;;3.58;2.50;;;;;;;;;;6147406;23;20203;-94
2023/07/19 11:32:18;;;;;;;2.90;2.00;;;;;;;;;;6146669;23;20179;-93
2023/07/19 11:34:48;;;;;;;4.70;2.13;;;;;;;;;;6148887;23;20174;-93
2023/07/19 11:37:21;;;;;;;2.80;2.35;;;;;;;;;;6150966;23;20199;-93
2023/07/19 11:39:50;;;;;;;2.63;2.38;;;;;;;;;;6150105;23;20191;-94
2023/07/19 11:42:46;;;;;;;2.72;2.40;;;;;;;;;;6150231;23;20205;-94
2023/07/19 11:45:16;;;;;;;2.20;2.00;;;;;;;;;;6152437;23;20175;-93
2023/07/19 11:47:46;;;;;;;3.15;2.38;;;;;;;;;;6155074;23;20159;-94
2023/07/19 11:50:15;;;;;;;2.40;2.20;;;;;;;;;;6152301;23;20195;-94
2023/07/19 11:52:48;;;;;;;3.65;2.20;;;;;;;;;;6152548;23;20172;-94
2023/07/19 11:55:18;;;;;;;3.97;2.22;;;;;;;;;;6151621;23;20166;-93
2023/07/19 11:57:51;;;;;;;3.35;2.70;;;;;;;;;;6152836;23;20152;-94
2023/07/19 12:00:20;;;;;;;2.25;2.00;;;;;;;;;;6151482;23;20184;-93
2023/07/19 12:02:49;;;;;;;3.95;2.05;;;;;;;;;;6149982;23;20183;-94
2023/07/19 12:05:20;;;;;;;3.72;3.00;;;;;;;;;;6151949;23;20176;-92
2023/07/19 12:07:50;;;;;;;2.45;2.25;;;;;;;;;;6147164;23;20171;-94
2023/07/19 12:10:19;;;;;;;2.55;2.05;;;;;;;;;;6152784;23;20544;-94
2023/07/19 12:12:48;;;;;;;2.45;2.05;;;;;;;;;;6150094;23;20183;-93
2023/07/19 12:15:16;;;;;;;2.05;1.85;;;;;;;;;;6151477;23;20175;-94
2023/07/19 12:17:44;;;;;;;1.92;1.83;;;;;;;;;;6150056;23;20168;-93
2023/07/19 12:20:13;;;;;;;2.75;2.08;;;;;;;;;;6150915;23;20180;-93
2023/07/19 12:22:46;;;;;;;3.30;2.22;;;;;;;;;;6154421;23;20153;-94
2023/07/19 12:25:14;;;;;;;3.10;2.30;;;;;;;;;;6155017;23;20171;-94
2023/07/19 12:27:42;;;;;;;4.22;3.30;;;;;;;;;;6154815;23;20155;-93
2023/07/19 12:30:11;;;;;;;2.67;2.20;;;;;;;;;;6154653;23;20182;-94
2023/07/19 12:32:39;;;;;;;4.07;2.13;;;;;;;;;;6154664;23;20204;-93
2023/07/19 12:35:08;;;;;;;2.65;2.45;;;;;;;;;;6148788;23;20203;-94
2023/07/19 12:37:35;;;;;;;3.58;2.60;;;;;;;;;;6146015;23;20249;-93
2023/07/19 12:40:08;;;;;;;1.73;1.63;;;;;;;;;;6147090;23;20191;-93
2023/07/19 12:42:36;;;;;;;2.00;1.80;;;;;;;;;;6144362;23;20196;-94
2023/07/19 12:45:05;;;;;;;3.22;2.25;;;;;;;;;;6141163;23;20175;-93
2023/07/19 12:47:32;;;;;;;3.35;2.22;;;;;;;;;;6140843;23;20183;-93
2023/07/19 12:50:01;;;;;;;2.33;1.60;;;;;;;;;;6138159;23;20667;-94
2023/07/19 12:52:28;;;;;;;1.60;1.50;;;;;;;;;;6140338;23;20196;-94
2023/07/19 12:54:56;;;;;;;4.03;2.63;;;;;;;;;;6140823;23;20181;-93
2023/07/19 12:57:25;;;;;;;1.55;1.45;;;;;;;;;;6137124;23;20219;-93
2023/07/19 13:00:26;;;;;;;1.92;1.83;;;;;;;;;;6138900;23;20213;-92
2023/07/19 13:02:54;;;;;;;1.70;1.60;;;;;;;;;;6153814;23;20191;-93
2023/07/19 13:05:21;;;;;;;2.50;2.10;;;;;;;;;;6150938;23;20160;-92
2023/07/19 13:07:50;;;;;;;1.77;1.40;;;;;;;;;;6137355;23;20160;-93
2023/07/19 13:10:18;;;;;;;1.88;1.35;;;;;;;;;;6138258;23;20510;-93
2023/07/19 13:12:48;;;;;;;2.92;1.95;;;;;;;;;;6142739;23;20163;-93
2023/07/19 13:15:16;;;;;;;3.38;1.92;;;;;;;;;;6148052;23;20172;-94
2023/07/19 13:17:44;;;;;;;1.63;1.52;;;;;;;;;;6133531;23;20215;-93
2023/07/19 13:20:11;;;;;;;1.52;1.42;;;;;;;;;;6135544;23;20266;-93
2023/07/19 13:22:40;;;;;;;2.00;1.33;;;;;;;;;;6137178;23;20183;-93
2023/07/19 13:25:08;;;;;;;1.90;1.27;;;;;;;;;;6135114;23;20180;-93
2023/07/19 13:27:36;;;;;;;2.25;1.70;;;;;;;;;;6138343;23;20172;-93
2023/07/19 13:30:06;;;;;;;1.30;1.20;;;;;;;;;;6135861;23;20211;-92
2023/07/19 13:32:34;;;;;;;2.28;1.52;;;;;;;;;;6131077;23;20171;-93
2023/07/19 13:35:02;;;;;;;1.58;1.48;;;;;;;;;;6130164;23;20691;-94
2023/07/19 13:37:29;;;;;;;1.73;1.50;;;;;;;;;;6130384;23;20200;-93
2023/07/19 13:39:57;;;;;;;2.00;1.90;;;;;;;;;;6129888;23;20548;-93
2023/07/19 13:42:25;;;;;;;1.73;1.63;;;;;;;;;;6128890;23;20196;-93
2023/07/19 13:44:53;;;;;;;2.40;2.22;;;;;;;;;;6129471;23;20172;-93
2023/07/19 13:47:22;;;;;;;2.22;2.03;;;;;;;;;;6129656;23;20215;-93
2023/07/19 13:49:49;;;;;;;2.33;2.08;;;;;;;;;;6137373;23;20206;-93
2023/07/19 13:52:17;;;;;;;2.08;1.88;;;;;;;;;;6145528;23;20172;-94
2023/07/19 13:54:44;;;;;;;1.98;1.60;;;;;;;;;;6133776;23;20171;-93
2023/07/19 13:57:12;;;;;;;2.85;2.00;;;;;;;;;;6132576;23;20210;-92
2023/07/19 13:59:40;;;;;;;3.78;2.75;;;;;;;;;;6132156;23;20247;-93
2023/07/19 14:02:07;;;;;;;3.15;2.53;;;;;;;;;;6133032;23;20192;-93
2023/07/19 14:04:36;;;;;;;2.58;2.38;;;;;;;;;;6132694;23;20184;-93
2023/07/19 14:07:04;;;;;;;2.95;2.00;;;;;;;;;;6135831;23;20172;-94
2023/07/19 14:09:32;;;;;;;2.20;1.80;;;;;;;;;;6141642;23;20176;-92
2023/07/19 14:12:00;;;;;;;3.58;3.22;;;;;;;;;;6138107;23;20171;-94
2023/07/19 14:14:28;;;;;;;3.30;2.15;;;;;;;;;;6140072;23;20179;-93
2023/07/19 14:16:55;;;;;;;1.50;1.40;;;;;;;;;;6134901;23;20215;-93
2023/07/19 14:19:23;;;;;;;2.35;2.15;;;;;;;;;;6136079;23;20175;-94
2023/07/19 14:21:52;;;;;;;3.75;1.90;;;;;;;;;;6133245;23;20672;-94
2023/07/19 14:24:19;;;;;;;2.90;2.00;;;;;;;;;;6136560;23;20172;-92
2023/07/19 14:26:47;;;;;;;3.88;2.85;;;;;;;;;;6132581;23;20247;-92
2023/07/19 14:29:15;;;;;;;3.05;2.80;;;;;;;;;;6134197;23;20183;-93
2023/07/19 14:31:42;;;;;;;2.15;2.00;;;;;;;;;;6132261;23;20183;-93
2023/07/19 14:34:10;;;;;;;3.53;2.00;;;;;;;;;;6133259;23;20188;-93
2023/07/19 14:36:38;;;;;;;2.53;2.33;;;;;;;;;;6130538;23;20231;-93
2023/07/19 14:39:07;;;;;;;1.88;1.60;;;;;;;;;;6134198;23;20191;-94
2023/07/19 14:41:34;;;;;;;2.90;2.03;;;;;;;;;;6143236;23;20200;-93
2023/07/19 14:44:02;;;;;;;1.60;1.50;;;;;;;;;;6133164;23;20520;-93
2023/07/19 14:46:31;;;;;;;1.75;1.63;;;;;;;;;;6132411;23;20179;-94
2023/07/19 14:48:59;;;;;;;2.30;2.10;;;;;;;;;;6133254;23;20595;-93
2023/07/19 14:51:27;;;;;;;2.70;1.75;;;;;;;;;;6134643;23;20196;-93